Latest Weather Observations for Cloncurry

IDQ60801

Issued at 11:32 am EST Friday 20 January 2017 (issued every 30 minutes, with the page automatically refreshed every 10 minutes)

About weather observations | Map of weather stations | Latest weather observations for QLD | Other Formats
Station Details ID: 029141 Name: CLONCURRY AIRPORT Lat: -20.67 Lon: 140.50 Height: 186.0 m
Data from the previous 72 hours. | See also: Recent months at Cloncurry
Date/Time
EST
Temp
°C
App
Temp
°C
Dew
Point
°C
Rel
Hum
%
Delta-T
°C
Wind Press
QNH
hPa
Press
MSL
hPa
Rain since
9am
mm
Dir  Spd
km/h
Gust
km/h
Spd
kts
Gust
kts
20/11:30am 34.3 35.3 20.3 44 9.4 NW 15 26 8 14 1008.6 1007.1 0.0
20/11:00am 33.6 34.7 20.4 46 8.9 NW 15 24 8 13 1009.1 1007.6 0.0
20/10:30am 32.9 33.6 20.4 47 8.4 NW 17 24 9 13 1009.3 1007.8 0.0
20/10:00am 32.3 34.0 22.4 56 6.8 NNW 17 22 9 12 1009.3 1007.8 0.0
20/09:30am 31.8 33.4 22.2 56 6.6 NNW 17 26 9 14 1009.3 1007.8 0.0
20/09:00am 31.2 33.6 22.2 58 6.2 NNW 13 20 7 11 1009.3 1007.8 0.0
20/08:30am 30.3 32.6 22.7 64 5.2 NNW 15 19 8 10 1009.2 1007.7 0.0
20/08:00am 29.2 32.2 23.4 71 4.0 NW 13 17 7 9 1008.9 1007.4 0.0
20/07:30am 29.3 32.7 24.0 73 3.7 NNW 13 15 7 8 1008.6 1007.1 0.0
20/07:00am 28.2 32.7 24.0 78 2.9 NNW 7 7 4 4 1008.4 1006.9 0.0
20/06:30am 27.7 31.3 23.7 79 2.8 NNW 11 13 6 7 1007.7 1006.3 0.0
20/06:00am 27.9 31.9 23.7 78 2.9 NNW 9 11 5 6 1007.1 1005.7 0.0
20/05:30am 28.2 32.2 23.8 77 3.1 NNW 9 13 5 7 1006.9 1005.5 0.0
20/05:00am 28.4 32.0 23.8 76 3.2 NNW 11 15 6 8 1007.0 1005.6 0.0
20/04:30am 28.5 31.6 23.6 75 3.4 NNW 13 17 7 9 1006.8 1005.4 0.0
20/04:00am 28.4 31.9 23.5 75 3.4 NW 11 15 6 8 1006.6 1005.2 0.0
20/03:30am 28.7 31.5 23.6 74 3.5 NNW 15 20 8 11 1006.8 1005.4 0.0
20/03:00am 28.6 32.1 23.5 74 3.5 NNW 11 15 6 8 1006.7 1005.3 0.0
20/02:30am 28.7 31.5 23.6 74 3.5 NNW 15 19 8 10 1006.3 1004.9 0.0
20/02:00am 28.8 31.6 23.7 74 3.5 NW 15 19 8 10 1006.1 1004.7 0.0
20/01:30am 29.1 32.4 23.8 73 3.7 NNW 13 17 7 9 1006.3 1004.9 0.0
20/01:00am 29.3 32.0 23.5 71 4.0 NNW 15 19 8 10 1006.9 1005.5 0.0
20/12:30am 29.2 33.0 23.4 71 4.0 NNW 9 13 5 7 1007.4 1006.0 0.0
20/12:00am 29.8 32.6 23.0 67 4.7 NNW 13 19 7 10 1007.3 1005.9 0.0
 
Date/Time
EST
Temp
°C
App
Temp
°C
Dew
Point
°C
Rel
Hum
%
Delta-T
°C
Wind Press
QNH
hPa
Press
MSL
hPa
Rain since
9am
mm
Dir  Spd
km/h
Gust
km/h
Spd
kts
Gust
kts
19/11:30pm 30.0 32.7 22.9 65 4.9 N 13 17 7 9 1007.6 1006.2 0.0
19/11:00pm 29.9 33.4 22.9 66 4.8 N 9 13 5 7 1007.4 1006.0 0.0
19/10:30pm 30.4 33.2 22.3 62 5.5 N 11 13 6 7 1007.3 1005.9 0.0
19/10:00pm 30.8 33.5 22.1 59 5.9 ENE 11 15 6 8 1007.1 1005.7 0.0
19/09:30pm 31.2 33.4 21.9 57 6.3 N 13 17 7 9 1006.7 1005.3 0.0
19/09:00pm 31.5 33.1 22.2 57 6.4 N 17 20 9 11 1006.6 1005.2 0.0
19/08:30pm 31.9 33.2 22.3 56 6.6 N 19 24 10 13 1006.3 1004.9 0.0
19/08:00pm 32.1 33.1 22.2 56 6.8 N 20 26 11 14 1006.1 1004.7 0.0
19/07:30pm 33.0 33.8 21.8 51 7.7 NNE 20 26 11 14 1005.7 1004.3 0.0
19/07:00pm 33.8 34.2 20.9 46 8.8 NE 20 26 11 14 1005.4 1004.0 0.0
19/06:30pm 35.9 36.6 18.9 36 11.3 NNE 13 19 7 10 1005.2 1003.7 0.0
19/06:00pm 36.1 36.4 18.7 36 11.5 NNE 15 20 8 11 1005.2 1003.7 0.0
19/05:30pm 36.8 37.5 18.8 34 11.9 NNW 13 19 7 10 1005.0 1003.5 0.0
19/05:00pm 36.9 37.7 19.8 36 11.5 N 15 20 8 11 1005.4 1004.0 0.0
19/04:30pm 36.6 37.4 18.2 34 12.1 N 11 19 6 10 1005.7 1004.3 0.0
19/04:00pm 36.8 37.3 19.3 36 11.7 NNW 15 20 8 11 1006.0 1004.6 0.0
19/03:30pm 36.3 36.4 18.4 35 11.8 N 15 22 8 12 1006.5 1005.1 0.0
19/03:00pm 36.8 38.9 21.0 40 10.8 N 11 20 6 11 1006.9 1005.5 0.0
19/02:30pm 36.3 36.1 19.3 37 11.3 N 19 30 10 16 1007.5 1006.1 0.0
19/02:00pm 36.1 37.9 19.5 37 11.1 - 9 26 5 14 1008.2 1006.7 0.0
19/01:30pm 35.8 36.5 19.7 39 10.8 NNW 15 24 8 13 1008.5 1007.0 0.0
19/01:00pm 35.3 36.0 19.6 39 10.5 N 15 26 8 14 1009.1 1007.6 0.0
19/12:30pm 34.7 35.0 19.5 40 10.1 NNE 17 26 9 14 1009.5 1008.0 0.0
19/12:00pm 34.7 37.2 21.7 46 8.9 N 11 20 6 11 1009.8 1008.3 0.0
19/11:30am 34.2 36.1 21.3 47 8.8 N 13 19 7 10 1010.0 1008.5 0.0
19/11:00am 33.6 34.8 20.0 44 9.1 N 13 19 7 10 1010.5 1009.1 0.0
19/10:30am 32.9 34.8 21.4 50 7.8 NW 13 19 7 10 1010.8 1009.4 0.0
19/10:00am 32.3 34.6 22.1 55 7.0 NW 13 20 7 11 1011.0 1009.6 0.0
19/09:30am 31.7 34.1 23.0 60 6.0 WNW 15 19 8 10 1011.2 1009.8 0.0
19/09:00am 30.8 34.3 23.5 65 5.1 W 11 19 6 10 1011.2 1009.8 0.2
19/08:30am 30.3 33.8 23.5 67 4.7 W 11 15 6 8 1011.5 1010.1 0.2
19/08:00am 29.6 33.2 23.8 71 4.0 NW 11 15 6 8 1011.5 1010.1 0.2
19/07:30am 28.4 33.3 24.6 80 2.7 NNW 7 9 4 5 1011.4 1010.0 0.2
19/07:00am 27.3 32.8 24.6 85 1.9 NNW 4 9 2 5 1011.1 1009.7 0.2
19/06:30am 26.6 32.6 24.3 87 1.6 CALM 0 6 0 3 1011.0 1009.6 0.2
19/06:00am 26.6 32.7 24.4 88 1.5 CALM 0 0 0 0 1010.7 1009.3 0.2
19/05:30am 26.4 32.3 24.1 87 1.6 CALM 0 0 0 0 1010.3 1008.9 0.2
19/05:00am 27.0 32.9 24.1 84 2.0 CALM 0 0 0 0 1010.0 1008.5 0.2
19/04:30am 27.2 33.0 23.9 82 2.3 CALM 0 2 0 1 1009.8 1008.3 0.2
19/04:00am 27.2 32.6 23.9 82 2.3 NNW 2 6 1 3 1009.8 1008.3 0.2
19/03:30am 27.4 32.0 23.8 81 2.5 NNW 6 9 3 5 1009.8 1008.3 0.2
19/03:00am 27.7 32.4 23.9 80 2.6 NNW 6 7 3 4 1010.0 1008.5 0.2
19/02:30am 27.7 31.8 23.9 80 2.6 NNW 9 9 5 5 1010.0 1008.5 0.2
19/02:00am 28.0 32.0 23.8 78 2.9 NNW 9 11 5 6 1010.2 1008.8 0.2
19/01:30am 28.1 32.1 23.7 77 3.0 NNW 9 13 5 7 1010.2 1008.8 0.2
19/01:00am 28.4 31.9 23.5 75 3.4 NNW 11 13 6 7 1010.2 1008.8 0.2
19/12:30am 28.7 31.9 23.1 71 3.9 NNW 11 15 6 8 1010.4 1009.0 0.2
19/12:00am 29.2 31.9 22.9 69 4.3 NNW 13 19 7 10 1010.5 1009.1 0.2
 
Date/Time
EST
Temp
°C
App
Temp
°C
Dew
Point
°C
Rel
Hum
%
Delta-T
°C
Wind Press
QNH
hPa
Press
MSL
hPa
Rain since
9am
mm
Dir  Spd
km/h
Gust
km/h
Spd
kts
Gust
kts
18/11:30pm 29.5 31.8 22.7 67 4.7 N 15 20 8 11 1010.7 1009.3 0.2
18/11:00pm 29.0 32.8 22.7 69 4.3 N 7 9 4 5 1010.8 1009.4 0.2
18/10:30pm 29.9 32.7 22.3 63 5.2 N 11 13 6 7 1010.7 1009.3 0.2
18/10:00pm 30.1 32.7 22.0 62 5.5 NNE 11 11 6 6 1010.3 1008.9 0.2
18/09:30pm 30.4 33.6 22.3 62 5.5 NNE 9 11 5 6 1010.0 1008.5 0.2
18/09:00pm 30.7 33.2 21.8 59 6.1 NNE 11 13 6 7 1009.8 1008.3 0.2
18/08:30pm 31.3 32.8 21.2 55 6.8 NNE 15 19 8 10 1009.7 1008.2 0.2
18/08:00pm 31.7 33.9 21.2 53 7.1 NNE 11 15 6 8 1009.6 1008.1 0.2
18/07:30pm 32.3 34.4 20.9 51 7.7 NNE 11 13 6 7 1009.4 1007.9 0.2
18/07:00pm 33.3 34.6 20.1 45 8.8 N 13 15 7 8 1009.1 1007.6 0.2
18/06:30pm 34.1 34.9 19.0 41 10.0 NE 13 17 7 9 1008.9 1007.4 0.2
18/06:00pm 34.4 36.0 19.2 40 10.1 NNW 9 17 5 9 1008.6 1007.1 0.2
18/05:30pm 35.0 37.1 19.0 39 10.6 NNW 6 11 3 6 1008.5 1007.0 0.2
18/05:00pm 35.0 36.3 19.4 40 10.4 N 11 17 6 9 1008.5 1007.0 0.2
18/04:30pm 34.8 35.9 18.8 39 10.6 WNW 11 17 6 9 1008.6 1007.1 0.2
18/04:00pm 34.8 35.9 18.8 39 10.6 WNW 11 17 6 9 1009.0 1007.5 0.2
18/03:30pm 34.6 35.6 18.6 38 10.5 NNW 11 17 6 9 1009.4 1007.9 0.2
18/03:00pm 33.9 35.5 19.9 43 9.4 N 11 20 6 11 1009.7 1008.2 0.2
18/02:30pm 34.1 34.8 20.5 45 9.2 N 17 28 9 15 1010.1 1008.7 0.2
18/02:00pm 33.8 35.3 19.8 43 9.4 NNW 11 20 6 11 1010.5 1009.1 0.2
18/01:30pm 33.3 33.6 19.7 44 9.1 NNW 17 26 9 14 1011.1 1009.7 0.2
18/01:00pm 32.8 33.9 21.3 50 7.8 NW 17 26 9 14 1011.7 1010.3 0.2
18/12:30pm 32.9 33.8 22.0 52 7.5 N 20 30 11 16 1012.2 1010.8 0.2
18/12:00pm 32.0 32.1 21.2 52 7.3 N 22 32 12 17 1012.5 1011.1 0.2
18/11:30am 31.7 33.2 23.0 60 6.0 NNW 20 33 11 18 1013.0 1011.6 0.2
18/11:00am 30.6 33.6 23.3 65 5.1 N 13 24 7 13 1013.3 1011.9 0.2
18/10:30am 29.8 32.4 23.3 68 4.5 NNE 15 20 8 11 1013.8 1012.3 0.2
18/10:00am 29.8 32.1 23.5 69 4.4 N 17 22 9 12 1014.1 1012.6 0.2
18/09:30am 28.5 31.3 23.6 75 3.4 N 15 20 8 11 1014.1 1012.6 0.0
18/09:00am 27.5 30.7 23.1 77 3.0 NNE 11 19 6 10 1014.0 1012.5 2.8
18/08:30am 27.4 30.6 22.4 74 3.4 ENE 9 11 5 6 1014.0 1012.5 2.8
18/08:00am 26.4 29.4 22.7 80 2.5 ENE 11 13 6 7 1013.8 1012.3 2.8
18/07:30am 25.7 28.4 22.8 84 2.0 ENE 13 15 7 8 1013.6 1012.1 2.8
18/07:00am 25.1 28.7 23.0 88 1.4 NW 9 13 5 7 1013.0 1011.6 2.8
18/06:30am 24.5 28.1 23.1 92 1.0 NW 9 13 5 7 1013.0 1011.6 2.8
18/06:00am 24.2 27.5 22.6 91 1.1 NW 9 11 5 6 1012.5 1011.1 2.8
18/05:30am 24.4 29.6 22.8 91 1.1 CALM 0 0 0 0 1011.9 1010.5 2.8
18/05:00am 24.5 29.3 22.9 91 1.1 NW 2 7 1 4 1011.4 1010.0 2.8
18/04:30am 24.6 29.8 22.8 90 1.2 CALM 0 0 0 0 1011.2 1009.8 2.8
18/04:00am 24.7 28.9 23.1 91 1.1 NW 6 7 3 4 1011.1 1009.7 2.8
18/03:30am 24.7 28.9 23.1 91 1.1 NW 6 9 3 5 1011.0 1009.6 2.8
18/03:00am 25.0 30.4 23.2 90 1.2 CALM 0 0 0 0 1011.1 1009.7 2.8
18/02:30am 25.0 29.1 23.2 90 1.2 NW 7 9 4 5 1011.2 1009.8 2.8
18/02:00am 25.1 29.4 23.3 90 1.2 NW 6 9 3 5 1011.1 1009.7 2.8
18/01:30am 25.2 29.4 23.4 90 1.2 NW 7 9 4 5 1011.1 1009.7 2.8
18/01:00am 25.3 30.9 23.5 90 1.2 CALM 0 0 0 0 1011.4 1010.0 2.8
18/12:30am 25.3 30.9 23.5 90 1.2 CALM 0 0 0 0 1011.4 1010.0 2.8
18/12:00am 25.2 29.6 23.4 90 1.2 NW 6 9 3 5 1011.3 1009.9 2.8
 
Date/Time
EST
Temp
°C
App
Temp
°C
Dew
Point
°C
Rel
Hum
%
Delta-T
°C
Wind Press
QNH
hPa
Press
MSL
hPa
Rain since
9am
mm
Dir  Spd
km/h
Gust
km/h
Spd
kts
Gust
kts
17/11:30pm 25.4 29.6 23.5 89 1.3 NW 7 11 4 6 1011.4 1010.0 2.8
17/11:00pm 25.6 29.4 23.5 88 1.4 NW 9 11 5 6 1011.6 1010.2 2.8
17/10:30pm 25.9 31.3 23.8 88 1.4 NW 2 7 1 4 1011.6 1010.2 2.8
17/10:00pm 26.0 31.8 23.9 88 1.5 CALM 0 0 0 0 1011.6 1010.2 2.8
17/09:30pm 26.0 30.3 23.7 87 1.6 NW 7 9 4 5 1011.7 1010.3 2.8
17/09:00pm 25.9 31.5 23.6 87 1.6 CALM 0 0 0 0 1011.5 1010.1 2.8
17/08:30pm 25.9 30.2 23.6 87 1.6 NW 7 9 4 5 1011.5 1010.1 2.8
17/08:00pm 25.9 29.4 23.6 87 1.6 NW 11 15 6 8 1011.3 1009.9 2.8
17/07:30pm 26.0 28.3 23.5 86 1.7 NW 17 22 9 12 1011.1 1009.7 2.8
17/07:00pm 26.6 27.2 23.5 83 2.1 NNW 26 37 14 20 1011.0 1009.6 2.8
17/06:44pm 26.9 28.8 23.8 83 2.1 NNW 20 41 11 22 1010.7 1009.3 2.8
17/06:30pm 26.0 27.3 23.3 85 1.9 N 22 35 12 19 1010.2 1008.8 2.8
17/06:23pm 26.2 25.3 22.9 82 2.3 N 32 41 17 22 1010.1 1008.7 1.4
17/06:00pm 31.4 31.7 21.6 56 6.7 N 22 28 12 15 1009.3 1007.8 0.2
17/05:30pm 31.7 32.1 20.9 52 7.3 NNE 20 32 11 17 1008.9 1007.4 0.2
17/05:00pm 32.8 33.0 21.3 50 7.8 NNE 22 30 12 16 1008.7 1007.2 0.2
17/04:30pm 32.4 33.8 22.5 56 6.8 NNE 19 26 10 14 1008.6 1007.1 0.2
17/04:00pm 32.6 33.4 21.8 53 7.4 N 20 30 11 16 1008.7 1007.2 0.2
17/03:30pm 32.7 33.9 22.5 55 7.0 NNE 20 28 11 15 1009.0 1007.5 0.2
17/03:00pm 31.6 32.1 21.2 54 7.0 NNE 20 30 11 16 1009.2 1007.7 0.2
17/02:30pm 31.6 31.7 21.2 54 7.0 NNE 22 30 12 16 1009.7 1008.2 0.2
17/02:00pm 31.5 31.8 22.2 57 6.4 N 24 32 13 17 1009.9 1008.4 0.2
17/01:30pm 31.2 31.9 23.0 61 5.7 NNE 24 30 13 16 1010.2 1008.8 0.0
17/01:00pm 29.8 31.1 23.3 68 4.5 NNE 22 32 12 17 1010.6 1009.2 0.0
17/12:30pm 28.3 31.0 24.7 81 2.5 NNE 19 26 10 14 1010.9 1009.5 0.0
17/12:00pm 27.2 27.9 23.7 81 2.4 NNE 26 37 14 20 1011.3 1009.9 0.0

Other Formats:

Comma delimited format used in spreadsheet applications
http://www.bom.gov.au/fwo/IDQ60801/IDQ60801.94335.axf

JavaScript Object Notation format (JSON) in row-major order
http://www.bom.gov.au/fwo/IDQ60801/IDQ60801.94335.json